Time;durP1;ratioP1;P1;durP2;ratioP2;P2;SDS_P1;SDS_P2;PMS_P1;PMS_P2;Temp;Humidity;BMP_temperature;BMP_pressure;BME280_temperature;BME280_humidity;BME280_pressure;Samples;Min_cycle;Max_cycle;Signal;HPM_P1;HPM_P2
2022/10/09 00:02:23;;;;;;;;;;;;;;;;;;5034753;28;19955;-62
2022/10/09 00:04:49;;;;;;;;;;;;;;;;;;5043150;28;19936;-62
2022/10/09 00:07:15;;;;;;;;;;;;;;;;;;5031892;28;19940;-62
2022/10/09 00:09:42;;;;;;;;;;;;;;;;;;5037426;28;19925;-64
2022/10/09 00:12:08;;;;;;;;;;;;;;;;;;5041777;28;19968;-62
2022/10/09 00:14:34;;;;;;;;;;;;;;;;;;5040751;28;19932;-63
2022/10/09 00:17:00;;;;;;;;;;;;;;;;;;5034863;28;19925;-63
2022/10/09 00:19:26;;;;;;;;;;;;;;;;;;5031797;28;20471;-62
2022/10/09 00:21:53;;;;;;;;;;;;;;;;;;5038452;28;20296;-62
2022/10/09 00:24:19;;;;;;;;;;;;;;;;;;5040476;28;19940;-62
2022/10/09 00:26:45;;;;;;;;;;;;;;;;;;5048129;28;19928;-63
2022/10/09 00:29:11;;;;;;;;;;;;;;;;;;5037759;28;19948;-63
2022/10/09 00:31:37;;;;;;;;;;;;;;;;;;5048990;28;19928;-61
2022/10/09 00:34:04;;;;;;;;;;;;;;;;;;5042903;28;19933;-62
2022/10/09 00:36:30;;;;;;;;;;;;;;;;;;5041161;28;19929;-63
2022/10/09 00:38:56;;;;;;;;;;;;;;;;;;5046495;28;20332;-64
2022/10/09 00:41:22;;;;;;;;;;;;;;;;;;5040058;28;19936;-62
2022/10/09 00:43:48;;;;;;;;;;;;;;;;;;5041957;28;19975;-62
2022/10/09 00:46:14;;;;;;;;;;;;;;;;;;5042271;28;19983;-61
2022/10/09 00:48:41;;;;;;;;;;;;;;;;;;5048059;28;19933;-63
2022/10/09 00:51:07;;;;;;;;;;;;;;;;;;5039721;28;19929;-62
2022/10/09 00:53:33;;;;;;;;;;;;;;;;;;5033185;28;19929;-62
2022/10/09 00:55:59;;;;;;;;;;;;;;;;;;5047421;28;19933;-63
2022/10/09 00:58:25;;;;;;;;;;;;;;;;;;5031789;28;19925;-62
2022/10/09 01:00:52;;;;;;;;;;;;;;;;;;5050886;28;19979;-62
2022/10/09 01:03:18;;;;;;;;;;;;;;;;;;5040601;28;19928;-62
2022/10/09 01:05:44;;;;;;;;;;;;;;;;;;5039857;28;19943;-63
2022/10/09 01:08:10;;;;;;;;;;;;;;;;;;5034892;28;19987;-64
2022/10/09 01:10:36;;;;;;;;;;;;;;;;;;5037602;28;19925;-62
2022/10/09 01:13:02;;;;;;;;;;;;;;;;;;5050020;28;19932;-63
2022/10/09 01:15:29;;;;;;;;;;;;;;;;;;5032917;28;19974;-62
2022/10/09 01:17:55;;;;;;;;;;;;;;;;;;5050617;28;20017;-63
2022/10/09 01:20:21;;;;;;;;;;;;;;;;;;5043465;28;19925;-62
2022/10/09 01:22:48;;;;;;;;;;;;;;;;;;5035451;28;19933;-62
2022/10/09 01:25:14;;;;;;;;;;;;;;;;;;5041795;28;20317;-62
2022/10/09 01:27:41;;;;;;;;;;;;;;;;;;5040850;28;19930;-62
2022/10/09 01:30:07;;;;;;;;;;;;;;;;;;5039755;28;19928;-62
2022/10/09 01:32:33;;;;;;;;;;;;;;;;;;5042598;28;19959;-62
2022/10/09 01:34:59;;;;;;;;;;;;;;;;;;5029721;28;19925;-62
2022/10/09 01:37:26;;;;;;;;;;;;;;;;;;5041987;28;19928;-61
2022/10/09 01:39:52;;;;;;;;;;;;;;;;;;5040434;28;19933;-63
2022/10/09 01:42:18;;;;;;;;;;;;;;;;;;5047966;28;19928;-62
2022/10/09 01:44:44;;;;;;;;;;;;;;;;;;5044793;28;20389;-62
2022/10/09 01:47:10;;;;;;;;;;;;;;;;;;5048967;28;20601;-62
2022/10/09 01:49:36;;;;;;;;;;;;;;;;;;5036565;28;19928;-62
2022/10/09 01:52:03;;;;;;;;;;;;;;;;;;5044059;28;19974;-62
2022/10/09 01:54:29;;;;;;;;;;;;;;;;;;5045164;28;20348;-64
2022/10/09 01:56:55;;;;;;;;;;;;;;;;;;5045581;28;19970;-62
2022/10/09 01:59:21;;;;;;;;;;;;;;;;;;5048674;28;19925;-63
2022/10/09 02:01:48;;;;;;;;;;;;;;;;;;5031454;28;20109;-62
2022/10/09 02:04:14;;;;;;;;;;;;;;;;;;5034078;28;19933;-62
2022/10/09 02:06:41;;;;;;;;;;;;;;;;;;5039751;28;19925;-62
2022/10/09 02:09:07;;;;;;;;;;;;;;;;;;5049492;28;20047;-62
2022/10/09 02:11:33;;;;;;;;;;;;;;;;;;5049794;28;19928;-61
2022/10/09 02:13:59;;;;;;;;;;;;;;;;;;5038137;28;19955;-62
2022/10/09 02:16:26;;;;;;;;;;;;;;;;;;5028963;28;20366;-61
2022/10/09 02:18:52;;;;;;;;;;;;;;;;;;5024424;28;20558;-62
2022/10/09 02:21:18;;;;;;;;;;;;;;;;;;5041633;28;19955;-63
2022/10/09 02:23:44;;;;;;;;;;;;;;;;;;5036779;28;20002;-62
2022/10/09 02:26:10;;;;;;;;;;;;;;;;;;5041170;28;20344;-62
2022/10/09 02:28:37;;;;;;;;;;;;;;;;;;5042630;28;19925;-62
2022/10/09 02:31:05;;;;;;;;;;;;;;;;;;5034657;28;19964;-62
2022/10/09 02:33:31;;;;;;;;;;;;;;;;;;5044422;28;19932;-62
2022/10/09 02:35:58;;;;;;;;;;;;;;;;;;5040241;28;20388;-62
2022/10/09 02:38:24;;;;;;;;;;;;;;;;;;5040805;28;19933;-61
2022/10/09 02:40:50;;;;;;;;;;;;;;;;;;5036123;28;19932;-62
2022/10/09 02:43:16;;;;;;;;;;;;;;;;;;5042854;28;19928;-62
2022/10/09 02:45:42;;;;;;;;;;;;;;;;;;5034301;28;19972;-62
2022/10/09 02:48:09;;;;;;;;;;;;;;;;;;5043249;28;20360;-63
2022/10/09 02:50:35;;;;;;;;;;;;;;;;;;5038365;28;19928;-61
2022/10/09 02:53:01;;;;;;;;;;;;;;;;;;5040294;28;19925;-63
2022/10/09 02:55:27;;;;;;;;;;;;;;;;;;5046761;28;19929;-63
2022/10/09 02:57:53;;;;;;;;;;;;;;;;;;5032497;28;19929;-62
2022/10/09 03:00:20;;;;;;;;;;;;;;;;;;5044808;28;19933;-62
2022/10/09 03:02:46;;;;;;;;;;;;;;;;;;5040207;28;19982;-63
2022/10/09 03:05:12;;;;;;;;;;;;;;;;;;5036975;28;19991;-61
2022/10/09 03:07:39;;;;;;;;;;;;;;;;;;5046409;28;19929;-63
2022/10/09 03:10:05;;;;;;;;;;;;;;;;;;5024919;28;19925;-62
2022/10/09 03:12:31;;;;;;;;;;;;;;;;;;5034953;28;19925;-62
2022/10/09 03:14:57;;;;;;;;;;;;;;;;;;5029248;28;19928;-62
2022/10/09 03:17:23;;;;;;;;;;;;;;;;;;5032799;28;19925;-62
2022/10/09 03:19:49;;;;;;;;;;;;;;;;;;5047464;28;19928;-62
2022/10/09 03:22:16;;;;;;;;;;;;;;;;;;5037370;28;20377;-62
2022/10/09 03:24:42;;;;;;;;;;;;;;;;;;5041539;28;20439;-62
2022/10/09 03:27:08;;;;;;;;;;;;;;;;;;5031008;28;19925;-62
2022/10/09 03:29:34;;;;;;;;;;;;;;;;;;5041912;28;19980;-62
2022/10/09 03:32:01;;;;;;;;;;;;;;;;;;5037370;28;20274;-62
2022/10/09 03:34:27;;;;;;;;;;;;;;;;;;5044430;28;19929;-63
2022/10/09 03:36:53;;;;;;;;;;;;;;;;;;5045962;28;19929;-62
2022/10/09 03:39:19;;;;;;;;;;;;;;;;;;5034525;28;20184;-63
2022/10/09 03:41:46;;;;;;;;;;;;;;;;;;5045176;28;19998;-64
2022/10/09 03:44:12;;;;;;;;;;;;;;;;;;5034261;28;19925;-64
2022/10/09 03:46:38;;;;;;;;;;;;;;;;;;5039868;28;19925;-62
2022/10/09 03:49:04;;;;;;;;;;;;;;;;;;5033909;28;20313;-62
2022/10/09 03:51:30;;;;;;;;;;;;;;;;;;5041733;28;19990;-63
2022/10/09 03:53:57;;;;;;;;;;;;;;;;;;5031417;28;19925;-62
2022/10/09 03:56:23;;;;;;;;;;;;;;;;;;5038724;28;20343;-62
2022/10/09 03:58:49;;;;;;;;;;;;;;;;;;5048466;28;19939;-64
2022/10/09 04:01:15;;;;;;;;;;;;;;;;;;5036579;28;19948;-63
2022/10/09 04:03:42;;;;;;;;;;;;;;;;;;5050393;28;19933;-62
2022/10/09 04:06:08;;;;;;;;;;;;;;;;;;5022615;28;19929;-63
2022/10/09 04:08:34;;;;;;;;;;;;;;;;;;5044169;28;19979;-62
2022/10/09 04:11:00;;;;;;;;;;;;;;;;;;5044910;28;19929;-65
2022/10/09 04:13:26;;;;;;;;;;;;;;;;;;5035693;28;19975;-64
2022/10/09 04:15:53;;;;;;;;;;;;;;;;;;5050836;28;19933;-63
2022/10/09 04:18:19;;;;;;;;;;;;;;;;;;5045361;28;19933;-62
2022/10/09 04:20:45;;;;;;;;;;;;;;;;;;5036451;28;19983;-63
2022/10/09 04:23:11;;;;;;;;;;;;;;;;;;5041354;28;19999;-62
2022/10/09 04:25:38;;;;;;;;;;;;;;;;;;5041670;28;19974;-62
2022/10/09 04:28:04;;;;;;;;;;;;;;;;;;5051242;28;19929;-62
2022/10/09 04:30:30;;;;;;;;;;;;;;;;;;5044480;28;19936;-62
2022/10/09 04:32:56;;;;;;;;;;;;;;;;;;5033782;28;19924;-62
2022/10/09 04:35:23;;;;;;;;;;;;;;;;;;5037311;28;19925;-62
2022/10/09 04:37:49;;;;;;;;;;;;;;;;;;5041972;28;19936;-63
2022/10/09 04:40:15;;;;;;;;;;;;;;;;;;5029723;28;20405;-60
2022/10/09 04:42:41;;;;;;;;;;;;;;;;;;5043966;28;19929;-62
2022/10/09 04:45:07;;;;;;;;;;;;;;;;;;5049200;28;20293;-62
2022/10/09 04:47:34;;;;;;;;;;;;;;;;;;5039357;28;20726;-64
2022/10/09 04:50:00;;;;;;;;;;;;;;;;;;5045774;28;19932;-63
2022/10/09 04:52:26;;;;;;;;;;;;;;;;;;5032435;28;20348;-62
2022/10/09 04:54:52;;;;;;;;;;;;;;;;;;5046419;28;19959;-62
2022/10/09 04:57:19;;;;;;;;;;;;;;;;;;5044864;28;19978;-62
2022/10/09 04:59:45;;;;;;;;;;;;;;;;;;5047620;28;20443;-61
2022/10/09 05:02:11;;;;;;;;;;;;;;;;;;5039336;28;19987;-61
2022/10/09 05:04:37;;;;;;;;;;;;;;;;;;5024949;28;19931;-62
2022/10/09 05:07:03;;;;;;;;;;;;;;;;;;5047838;28;19925;-61
2022/10/09 05:09:30;;;;;;;;;;;;;;;;;;5033008;28;19940;-62
2022/10/09 05:11:56;;;;;;;;;;;;;;;;;;5036806;28;19933;-62
2022/10/09 05:14:22;;;;;;;;;;;;;;;;;;5036180;28;19978;-63
2022/10/09 05:16:48;;;;;;;;;;;;;;;;;;5038197;28;20320;-63
2022/10/09 05:19:34;;;;;;;;;;;;;;;;;;5043841;28;20020;-63
2022/10/09 05:22:01;;;;;;;;;;;;;;;;;;5044473;28;19929;-64
2022/10/09 05:24:27;;;;;;;;;;;;;;;;;;5050235;28;20348;-63
2022/10/09 05:26:53;;;;;;;;;;;;;;;;;;5038943;28;20348;-62
2022/10/09 05:29:19;;;;;;;;;;;;;;;;;;5042994;28;19928;-62
2022/10/09 05:31:45;;;;;;;;;;;;;;;;;;5020332;28;19933;-62
2022/10/09 05:34:14;;;;;;;;;;;;;;;;;;5044939;28;19929;-62
2022/10/09 05:36:41;;;;;;;;;;;;;;;;;;5049888;28;20281;-62
2022/10/09 05:39:07;;;;;;;;;;;;;;;;;;5039117;28;19937;-62
2022/10/09 05:41:33;;;;;;;;;;;;;;;;;;5040797;28;19987;-62
2022/10/09 05:43:59;;;;;;;;;;;;;;;;;;5035542;28;20214;-62
2022/10/09 05:46:25;;;;;;;;;;;;;;;;;;5034880;28;19974;-62
2022/10/09 05:48:51;;;;;;;;;;;;;;;;;;5046072;28;19999;-62
2022/10/09 05:51:18;;;;;;;;;;;;;;;;;;5038872;28;20433;-62
2022/10/09 05:53:44;;;;;;;;;;;;;;;;;;5050301;28;19925;-62
2022/10/09 05:56:10;;;;;;;;;;;;;;;;;;5039513;28;19925;-62
2022/10/09 05:58:36;;;;;;;;;;;;;;;;;;5041140;28;20336;-62
2022/10/09 06:01:02;;;;;;;;;;;;;;;;;;5034736;28;20002;-62
2022/10/09 06:03:28;;;;;;;;;;;;;;;;;;5044785;28;19935;-64
2022/10/09 06:05:55;;;;;;;;;;;;;;;;;;5040020;28;20351;-62
2022/10/09 06:08:21;;;;;;;;;;;;;;;;;;5038998;28;19947;-62
2022/10/09 06:10:47;;;;;;;;;;;;;;;;;;5048876;28;19982;-62
2022/10/09 06:13:13;;;;;;;;;;;;;;;;;;5033405;28;19929;-63
2022/10/09 06:15:39;;;;;;;;;;;;;;;;;;5046747;28;19928;-62
2022/10/09 06:18:05;;;;;;;;;;;;;;;;;;5041658;28;19952;-62
2022/10/09 06:20:32;;;;;;;;;;;;;;;;;;5049433;28;19944;-62
2022/10/09 06:22:58;;;;;;;;;;;;;;;;;;5034617;28;19929;-62
2022/10/09 06:25:24;;;;;;;;;;;;;;;;;;5038005;28;19933;-62
2022/10/09 06:27:50;;;;;;;;;;;;;;;;;;5032702;28;19929;-64
2022/10/09 06:30:16;;;;;;;;;;;;;;;;;;5039345;28;19928;-63
2022/10/09 06:32:42;;;;;;;;;;;;;;;;;;5039746;28;19929;-62
2022/10/09 06:35:09;;;;;;;;;;;;;;;;;;5036298;28;20348;-62
2022/10/09 06:37:35;;;;;;;;;;;;;;;;;;5041208;28;19983;-64
2022/10/09 06:40:01;;;;;;;;;;;;;;;;;;5020944;28;20616;-62
2022/10/09 06:42:27;;;;;;;;;;;;;;;;;;5030097;28;20289;-63
2022/10/09 06:44:54;;;;;;;;;;;;;;;;;;5041638;28;19924;-62
2022/10/09 06:47:20;;;;;;;;;;;;;;;;;;5041080;28;19944;-62
2022/10/09 06:49:46;;;;;;;;;;;;;;;;;;5031442;28;19925;-63
2022/10/09 06:52:12;;;;;;;;;;;;;;;;;;5036878;28;20396;-62
2022/10/09 06:54:38;;;;;;;;;;;;;;;;;;5034999;28;20440;-62
2022/10/09 06:57:04;;;;;;;;;;;;;;;;;;5041804;28;19929;-63
2022/10/09 06:59:31;;;;;;;;;;;;;;;;;;5035225;28;19925;-62
2022/10/09 07:01:57;;;;;;;;;;;;;;;;;;5049614;28;20282;-62
2022/10/09 07:04:23;;;;;;;;;;;;;;;;;;5035635;28;20337;-63
2022/10/09 07:06:49;;;;;;;;;;;;;;;;;;5043479;28;19929;-63
2022/10/09 07:09:15;;;;;;;;;;;;;;;;;;5024884;28;20274;-62
2022/10/09 07:11:42;;;;;;;;;;;;;;;;;;5038193;28;19928;-63
2022/10/09 07:14:08;;;;;;;;;;;;;;;;;;5036827;28;19972;-63
2022/10/09 07:16:34;;;;;;;;;;;;;;;;;;5030153;28;19929;-64
2022/10/09 07:19:02;;;;;;;;;;;;;;;;;;5047219;28;19951;-63
2022/10/09 07:21:28;;;;;;;;;;;;;;;;;;5039084;28;19925;-62
2022/10/09 07:23:54;;;;;;;;;;;;;;;;;;5029947;28;20459;-61
2022/10/09 07:26:21;;;;;;;;;;;;;;;;;;5037555;28;20343;-64
2022/10/09 07:28:47;;;;;;;;;;;;;;;;;;5040612;28;19933;-63
2022/10/09 07:31:13;;;;;;;;;;;;;;;;;;5045185;28;19935;-63
2022/10/09 07:33:40;;;;;;;;;;;;;;;;;;5041810;28;19929;-64
2022/10/09 07:36:06;;;;;;;;;;;;;;;;;;5041568;28;19925;-63
2022/10/09 07:38:32;;;;;;;;;;;;;;;;;;5032090;28;19990;-63
2022/10/09 07:40:59;;;;;;;;;;;;;;;;;;5048877;28;19971;-63
2022/10/09 07:43:25;;;;;;;;;;;;;;;;;;5043231;28;19932;-63
2022/10/09 07:45:51;;;;;;;;;;;;;;;;;;5040213;28;19971;-63
2022/10/09 07:48:18;;;;;;;;;;;;;;;;;;5047862;28;19984;-63
2022/10/09 07:50:44;;;;;;;;;;;;;;;;;;5031205;28;20435;-63
2022/10/09 07:53:10;;;;;;;;;;;;;;;;;;5044857;28;19929;-63
2022/10/09 07:55:36;;;;;;;;;;;;;;;;;;5042101;28;19925;-63
2022/10/09 07:58:02;;;;;;;;;;;;;;;;;;5039249;28;19944;-64
2022/10/09 08:00:28;;;;;;;;;;;;;;;;;;5032600;28;19925;-63
2022/10/09 08:02:55;;;;;;;;;;;;;;;;;;5044254;28;19929;-63
2022/10/09 08:05:21;;;;;;;;;;;;;;;;;;5043734;28;20008;-62
2022/10/09 08:07:47;;;;;;;;;;;;;;;;;;5037255;28;20440;-63
2022/10/09 08:10:13;;;;;;;;;;;;;;;;;;5034320;28;19983;-64
2022/10/09 08:12:39;;;;;;;;;;;;;;;;;;5039901;28;19925;-63
2022/10/09 08:15:06;;;;;;;;;;;;;;;;;;5049140;28;19929;-63
2022/10/09 08:17:32;;;;;;;;;;;;;;;;;;5032066;28;20448;-63
2022/10/09 08:19:58;;;;;;;;;;;;;;;;;;5042234;28;19999;-63
2022/10/09 08:22:24;;;;;;;;;;;;;;;;;;5046658;28;19929;-63
2022/10/09 08:24:50;;;;;;;;;;;;;;;;;;5032372;28;19929;-63
2022/10/09 08:27:16;;;;;;;;;;;;;;;;;;5046474;28;19937;-63
2022/10/09 08:29:43;;;;;;;;;;;;;;;;;;5033441;28;20412;-64
2022/10/09 08:32:09;;;;;;;;;;;;;;;;;;5041017;28;20324;-63
2022/10/09 08:34:35;;;;;;;;;;;;;;;;;;5037064;28;20339;-64
2022/10/09 08:37:01;;;;;;;;;;;;;;;;;;5040262;28;19986;-64
2022/10/09 08:39:31;;;;;;;;;;;;;;;;;;5044321;28;19991;-64
2022/10/09 08:42:00;;;;;;;;;;;;;;;;;;5042655;28;20377;-63
2022/10/09 08:44:26;;;;;;;;;;;;;;;;;;5051063;28;19925;-64
2022/10/09 08:46:52;;;;;;;;;;;;;;;;;;5039614;28;20365;-63
2022/10/09 08:49:20;;;;;;;;;;;;;;;;;;5042642;28;19969;-64
2022/10/09 08:51:46;;;;;;;;;;;;;;;;;;5049388;28;19928;-64
2022/10/09 08:54:12;;;;;;;;;;;;;;;;;;5046707;28;19925;-63
2022/10/09 08:56:38;;;;;;;;;;;;;;;;;;5050622;28;19929;-63
2022/10/09 08:59:05;;;;;;;;;;;;;;;;;;5029495;28;20130;-63
2022/10/09 09:01:31;;;;;;;;;;;;;;;;;;5044708;28;19925;-63
2022/10/09 09:03:57;;;;;;;;;;;;;;;;;;5045840;28;19925;-64
2022/10/09 09:06:23;;;;;;;;;;;;;;;;;;5051037;28;20309;-64
2022/10/09 09:08:49;;;;;;;;;;;;;;;;;;5051826;28;19929;-64
2022/10/09 09:11:16;;;;;;;;;;;;;;;;;;5040419;28;19975;-63
2022/10/09 09:13:46;;;;;;;;;;;;;;;;;;5038769;28;20468;-63
2022/10/09 09:16:12;;;;;;;;;;;;;;;;;;5035697;28;19937;-63
2022/10/09 09:18:39;;;;;;;;;;;;;;;;;;5030453;28;19983;-64
2022/10/09 09:21:08;;;;;;;;;;;;;;;;;;5041812;28;20309;-63
2022/10/09 09:23:34;;;;;;;;;;;;;;;;;;5051257;28;19936;-64
2022/10/09 09:26:00;;;;;;;;;;;;;;;;;;5050690;28;19955;-63
2022/10/09 09:28:26;;;;;;;;;;;;;;;;;;5037199;28;19925;-63
2022/10/09 09:30:54;;;;;;;;;;;;;;;;;;5044697;28;20004;-64
2022/10/09 09:33:20;;;;;;;;;;;;;;;;;;5041406;28;19928;-64
2022/10/09 09:35:46;;;;;;;;;;;;;;;;;;5048725;28;20015;-63
2022/10/09 09:38:13;;;;;;;;;;;;;;;;;;5041503;28;19936;-63
2022/10/09 09:40:39;;;;;;;;;;;;;;;;;;5044133;28;19932;-62
2022/10/09 09:43:09;;;;;;;;;;;;;;;;;;5041453;28;19932;-63
2022/10/09 09:45:35;;;;;;;;;;;;;;;;;;5030885;28;20340;-64
2022/10/09 09:48:01;;;;;;;;;;;;;;;;;;5040869;28;19983;-63
2022/10/09 09:50:28;;;;;;;;;;;;;;;;;;5044548;28;19978;-64
2022/10/09 09:53:13;;;;;;;;;;;;;;;;;;5044352;28;19929;-64
2022/10/09 09:55:39;;;;;;;;;;;;;;;;;;5039079;28;19929;-63
2022/10/09 09:58:05;;;;;;;;;;;;;;;;;;5042184;28;19994;-63
2022/10/09 10:00:32;;;;;;;;;;;;;;;;;;5043020;28;19925;-64
2022/10/09 10:02:58;;;;;;;;;;;;;;;;;;5038681;28;19936;-64
2022/10/09 10:05:25;;;;;;;;;;;;;;;;;;5048876;28;20364;-65
2022/10/09 10:07:51;;;;;;;;;;;;;;;;;;5028771;28;20429;-64
2022/10/09 10:10:17;;;;;;;;;;;;;;;;;;5049623;28;19990;-65
2022/10/09 10:12:49;;;;;;;;;;;;;;;;;;5043200;28;19963;-64
2022/10/09 10:15:16;;;;;;;;;;;;;;;;;;5049550;28;20460;-65
2022/10/09 10:17:42;;;;;;;;;;;;;;;;;;5041270;28;20343;-64
2022/10/09 10:20:08;;;;;;;;;;;;;;;;;;5039756;28;20109;-64
2022/10/09 10:22:34;;;;;;;;;;;;;;;;;;5045884;28;19979;-64
2022/10/09 10:25:01;;;;;;;;;;;;;;;;;;5031094;28;19928;-65
2022/10/09 10:27:27;;;;;;;;;;;;;;;;;;5049405;28;19938;-65
2022/10/09 10:29:53;;;;;;;;;;;;;;;;;;5026504;28;19929;-65
2022/10/09 10:32:19;;;;;;;;;;;;;;;;;;5045104;28;19940;-64
2022/10/09 10:34:46;;;;;;;;;;;;;;;;;;5038485;28;19983;-64
2022/10/09 10:37:12;;;;;;;;;;;;;;;;;;5035615;28;19924;-65
2022/10/09 10:39:38;;;;;;;;;;;;;;;;;;5046300;28;19929;-65
2022/10/09 10:42:04;;;;;;;;;;;;;;;;;;5038827;28;19955;-65
2022/10/09 10:44:31;;;;;;;;;;;;;;;;;;5049517;28;19978;-65
2022/10/09 10:46:57;;;;;;;;;;;;;;;;;;5033626;28;19932;-65
2022/10/09 10:49:23;;;;;;;;;;;;;;;;;;5042776;28;19925;-65
2022/10/09 10:51:50;;;;;;;;;;;;;;;;;;5035703;28;19929;-65
2022/10/09 10:54:16;;;;;;;;;;;;;;;;;;5034967;28;20393;-65
2022/10/09 10:56:42;;;;;;;;;;;;;;;;;;5044868;28;20381;-64
2022/10/09 10:59:08;;;;;;;;;;;;;;;;;;5034690;28;19979;-65
2022/10/09 11:01:35;;;;;;;;;;;;;;;;;;5041161;28;19967;-65
2022/10/09 11:04:01;;;;;;;;;;;;;;;;;;5030564;28;20332;-65
2022/10/09 11:06:27;;;;;;;;;;;;;;;;;;5031386;28;20278;-65
2022/10/09 11:08:53;;;;;;;;;;;;;;;;;;5039258;28;19986;-65
2022/10/09 11:11:19;;;;;;;;;;;;;;;;;;5034647;28;19928;-65
2022/10/09 11:13:45;;;;;;;;;;;;;;;;;;5043940;28;20339;-65
2022/10/09 11:16:12;;;;;;;;;;;;;;;;;;5033899;28;19928;-65
2022/10/09 11:18:39;;;;;;;;;;;;;;;;;;5043064;28;19925;-66
2022/10/09 11:21:05;;;;;;;;;;;;;;;;;;5041507;28;19929;-66
2022/10/09 11:23:31;;;;;;;;;;;;;;;;;;5044136;28;19925;-65
2022/10/09 11:25:58;;;;;;;;;;;;;;;;;;5047314;28;19929;-65
2022/10/09 11:28:24;;;;;;;;;;;;;;;;;;5040135;28;19937;-65
2022/10/09 11:30:50;;;;;;;;;;;;;;;;;;5042838;28;19929;-66
2022/10/09 11:33:16;;;;;;;;;;;;;;;;;;5037235;28;20359;-66
2022/10/09 11:35:43;;;;;;;;;;;;;;;;;;5033763;28;19929;-65
2022/10/09 11:38:09;;;;;;;;;;;;;;;;;;5029584;28;19971;-65
2022/10/09 11:40:36;;;;;;;;;;;;;;;;;;5040317;28;19931;-66
2022/10/09 11:43:02;;;;;;;;;;;;;;;;;;5034473;28;19974;-65
2022/10/09 11:45:28;;;;;;;;;;;;;;;;;;5036186;28;19925;-65
2022/10/09 11:47:55;;;;;;;;;;;;;;;;;;5045776;28;20023;-66
2022/10/09 11:50:21;;;;;;;;;;;;;;;;;;5039208;28;19929;-65
2022/10/09 11:52:47;;;;;;;;;;;;;;;;;;5048236;28;19928;-66
2022/10/09 11:55:14;;;;;;;;;;;;;;;;;;5037008;28;19937;-65
2022/10/09 11:57:40;;;;;;;;;;;;;;;;;;5032985;28;19986;-66
2022/10/09 12:00:06;;;;;;;;;;;;;;;;;;5039208;28;19929;-67
2022/10/09 12:02:32;;;;;;;;;;;;;;;;;;5042323;28;19974;-65
2022/10/09 12:04:58;;;;;;;;;;;;;;;;;;5041097;28;19925;-65
2022/10/09 12:07:25;;;;;;;;;;;;;;;;;;5036224;28;19939;-64
2022/10/09 12:09:51;;;;;;;;;;;;;;;;;;5041640;28;19935;-65
2022/10/09 12:12:17;;;;;;;;;;;;;;;;;;5034221;28;19951;-65
2022/10/09 12:14:43;;;;;;;;;;;;;;;;;;5044559;28;19924;-65
2022/10/09 12:17:10;;;;;;;;;;;;;;;;;;5047936;28;19928;-66
2022/10/09 12:19:36;;;;;;;;;;;;;;;;;;5041711;28;19929;-66
2022/10/09 12:22:02;;;;;;;;;;;;;;;;;;5051745;28;19928;-66
2022/10/09 12:24:28;;;;;;;;;;;;;;;;;;5028117;28;20312;-68
2022/10/09 12:26:55;;;;;;;;;;;;;;;;;;5046233;28;19932;-65
2022/10/09 12:29:21;;;;;;;;;;;;;;;;;;5035425;28;19929;-65
2022/10/09 12:31:47;;;;;;;;;;;;;;;;;;5035464;28;19948;-65
2022/10/09 12:34:13;;;;;;;;;;;;;;;;;;5040344;28;19925;-65
2022/10/09 12:36:39;;;;;;;;;;;;;;;;;;5035178;28;19924;-66
2022/10/09 12:39:06;;;;;;;;;;;;;;;;;;5044746;28;19933;-66
2022/10/09 12:41:32;;;;;;;;;;;;;;;;;;5041088;28;19933;-66
2022/10/09 12:43:58;;;;;;;;;;;;;;;;;;5039200;28;19929;-66
2022/10/09 12:46:24;;;;;;;;;;;;;;;;;;5032828;28;19980;-66
2022/10/09 12:48:50;;;;;;;;;;;;;;;;;;5049295;28;19979;-66
2022/10/09 12:51:17;;;;;;;;;;;;;;;;;;5039499;28;19932;-66
2022/10/09 12:53:43;;;;;;;;;;;;;;;;;;5032264;28;19975;-65
2022/10/09 12:56:09;;;;;;;;;;;;;;;;;;5030994;28;19924;-65
2022/10/09 12:58:37;;;;;;;;;;;;;;;;;;5044839;28;20014;-67
2022/10/09 13:01:03;;;;;;;;;;;;;;;;;;5042021;28;19929;-66
2022/10/09 13:03:30;;;;;;;;;;;;;;;;;;5035628;28;20293;-65
2022/10/09 13:05:56;;;;;;;;;;;;;;;;;;5033705;28;19933;-65
2022/10/09 13:08:22;;;;;;;;;;;;;;;;;;5039653;28;19925;-65
2022/10/09 13:10:48;;;;;;;;;;;;;;;;;;5032460;28;19975;-70
2022/10/09 13:13:14;;;;;;;;;;;;;;;;;;5051669;28;19928;-65
2022/10/09 13:15:40;;;;;;;;;;;;;;;;;;5032150;28;19978;-65
2022/10/09 13:18:08;;;;;;;;;;;;;;;;;;5048869;28;19932;-65
2022/10/09 13:20:34;;;;;;;;;;;;;;;;;;5036251;28;19928;-65
2022/10/09 13:23:00;;;;;;;;;;;;;;;;;;5044796;28;19925;-64
2022/10/09 13:25:26;;;;;;;;;;;;;;;;;;5051220;28;20286;-65
2022/10/09 13:27:52;;;;;;;;;;;;;;;;;;5032361;28;19925;-65
2022/10/09 13:30:19;;;;;;;;;;;;;;;;;;5043290;28;19932;-64
2022/10/09 13:32:45;;;;;;;;;;;;;;;;;;5030274;28;19936;-63
2022/10/09 13:35:11;;;;;;;;;;;;;;;;;;5037581;28;20279;-63
2022/10/09 13:37:37;;;;;;;;;;;;;;;;;;5020246;28;20340;-65
2022/10/09 13:40:04;;;;;;;;;;;;;;;;;;5043738;28;20059;-64
2022/10/09 13:42:30;;;;;;;;;;;;;;;;;;5047131;28;19990;-65
2022/10/09 13:44:57;;;;;;;;;;;;;;;;;;5042458;28;19925;-66
2022/10/09 13:47:23;;;;;;;;;;;;;;;;;;5038076;28;20384;-65
2022/10/09 13:49:50;;;;;;;;;;;;;;;;;;5028849;28;19967;-65
2022/10/09 13:52:16;;;;;;;;;;;;;;;;;;5049772;28;19936;-65
2022/10/09 13:54:42;;;;;;;;;;;;;;;;;;5046248;28;20254;-65
2022/10/09 13:57:08;;;;;;;;;;;;;;;;;;5043867;28;19925;-65
2022/10/09 13:59:35;;;;;;;;;;;;;;;;;;5036675;28;19925;-65
2022/10/09 14:02:01;;;;;;;;;;;;;;;;;;5030709;28;19940;-65
2022/10/09 14:04:27;;;;;;;;;;;;;;;;;;5047092;28;19925;-65
2022/10/09 14:06:53;;;;;;;;;;;;;;;;;;5042994;28;19929;-65
2022/10/09 14:09:19;;;;;;;;;;;;;;;;;;5041486;28;19932;-66
2022/10/09 14:11:46;;;;;;;;;;;;;;;;;;5044513;28;19933;-65
2022/10/09 14:14:12;;;;;;;;;;;;;;;;;;5042038;28;19925;-65
2022/10/09 14:16:38;;;;;;;;;;;;;;;;;;5034320;28;19971;-65
2022/10/09 14:19:04;;;;;;;;;;;;;;;;;;5042789;28;19948;-65
2022/10/09 14:21:31;;;;;;;;;;;;;;;;;;5042664;28;19928;-65
2022/10/09 14:23:57;;;;;;;;;;;;;;;;;;5038899;28;19925;-65
2022/10/09 14:26:24;;;;;;;;;;;;;;;;;;5037465;28;19933;-65
2022/10/09 14:28:50;;;;;;;;;;;;;;;;;;5038605;28;19934;-65
2022/10/09 14:31:17;;;;;;;;;;;;;;;;;;5038067;28;19983;-65
2022/10/09 14:33:43;;;;;;;;;;;;;;;;;;5045752;28;19954;-65
2022/10/09 14:36:09;;;;;;;;;;;;;;;;;;5039405;28;19925;-65
2022/10/09 14:38:36;;;;;;;;;;;;;;;;;;5043674;28;20387;-65
2022/10/09 14:41:02;;;;;;;;;;;;;;;;;;5042134;28;19929;-64
2022/10/09 14:43:29;;;;;;;;;;;;;;;;;;5031074;28;20397;-64
2022/10/09 14:45:55;;;;;;;;;;;;;;;;;;5022987;28;20332;-64
2022/10/09 14:48:21;;;;;;;;;;;;;;;;;;5039388;28;20002;-64
2022/10/09 14:50:47;;;;;;;;;;;;;;;;;;5031438;28;19932;-64
2022/10/09 14:53:13;;;;;;;;;;;;;;;;;;5034410;28;19925;-65
2022/10/09 14:55:40;;;;;;;;;;;;;;;;;;5041001;28;19925;-63
2022/10/09 14:58:06;;;;;;;;;;;;;;;;;;5023105;28;20486;-63
2022/10/09 15:00:32;;;;;;;;;;;;;;;;;;5048014;28;20336;-64
2022/10/09 15:02:58;;;;;;;;;;;;;;;;;;5045486;28;19986;-63
2022/10/09 15:05:25;;;;;;;;;;;;;;;;;;5042823;28;19932;-64
2022/10/09 15:07:51;;;;;;;;;;;;;;;;;;5041357;28;19979;-63
2022/10/09 15:10:17;;;;;;;;;;;;;;;;;;5039672;28;19929;-64
2022/10/09 15:12:43;;;;;;;;;;;;;;;;;;5040524;28;19974;-63
2022/10/09 15:15:09;;;;;;;;;;;;;;;;;;5029694;28;19925;-63
2022/10/09 15:17:36;;;;;;;;;;;;;;;;;;5046828;28;19990;-64
2022/10/09 15:20:02;;;;;;;;;;;;;;;;;;5040015;28;19929;-63
2022/10/09 15:22:28;;;;;;;;;;;;;;;;;;5036905;28;19932;-65
2022/10/09 15:24:54;;;;;;;;;;;;;;;;;;5035051;28;19975;-64
2022/10/09 15:27:21;;;;;;;;;;;;;;;;;;5035138;28;19974;-64
2022/10/09 15:29:47;;;;;;;;;;;;;;;;;;5047833;28;19933;-64
2022/10/09 15:32:13;;;;;;;;;;;;;;;;;;5035134;28;19924;-64
2022/10/09 15:34:39;;;;;;;;;;;;;;;;;;5038570;28;19931;-64
2022/10/09 15:37:06;;;;;;;;;;;;;;;;;;5041401;28;19940;-64
2022/10/09 15:39:32;;;;;;;;;;;;;;;;;;5041238;28;20439;-64
2022/10/09 15:41:58;;;;;;;;;;;;;;;;;;5041098;28;19925;-63
2022/10/09 15:44:25;;;;;;;;;;;;;;;;;;5034295;28;19941;-64
2022/10/09 15:46:51;;;;;;;;;;;;;;;;;;5042266;28;19986;-64
2022/10/09 15:49:17;;;;;;;;;;;;;;;;;;5031396;28;19983;-63
2022/10/09 15:51:43;;;;;;;;;;;;;;;;;;5040292;28;19970;-64
2022/10/09 15:54:09;;;;;;;;;;;;;;;;;;5048951;28;19925;-64
2022/10/09 15:56:36;;;;;;;;;;;;;;;;;;5039265;28;20352;-64
2022/10/09 15:59:05;;;;;;;;;;;;;;;;;;5045117;28;19929;-64
2022/10/09 16:01:31;;;;;;;;;;;;;;;;;;5041387;28;19979;-64
2022/10/09 16:03:57;;;;;;;;;;;;;;;;;;5047138;28;19951;-65
2022/10/09 16:06:23;;;;;;;;;;;;;;;;;;5040874;28;19979;-64
2022/10/09 16:08:49;;;;;;;;;;;;;;;;;;5042958;28;19975;-65
2022/10/09 16:11:16;;;;;;;;;;;;;;;;;;5041915;28;19925;-65
2022/10/09 16:13:45;;;;;;;;;;;;;;;;;;5044041;28;19924;-63
2022/10/09 16:16:11;;;;;;;;;;;;;;;;;;5041850;28;19971;-64
2022/10/09 16:18:37;;;;;;;;;;;;;;;;;;5038700;28;19944;-63
2022/10/09 16:21:03;;;;;;;;;;;;;;;;;;5051556;28;20006;-64
2022/10/09 16:23:29;;;;;;;;;;;;;;;;;;5039376;28;20319;-64
2022/10/09 16:25:56;;;;;;;;;;;;;;;;;;5041715;28;19925;-63
2022/10/09 16:28:22;;;;;;;;;;;;;;;;;;5044929;28;19937;-64
2022/10/09 16:30:49;;;;;;;;;;;;;;;;;;5031645;28;20177;-63
2022/10/09 16:33:15;;;;;;;;;;;;;;;;;;5036220;28;19975;-64
2022/10/09 16:35:41;;;;;;;;;;;;;;;;;;5032207;28;19929;-64
2022/10/09 16:38:07;;;;;;;;;;;;;;;;;;5051234;28;19929;-64
2022/10/09 16:40:34;;;;;;;;;;;;;;;;;;5046829;28;19928;-64